Time;durP1;ratioP1;P1;durP2;ratioP2;P2;SDS_P1;SDS_P2;PMS_P1;PMS_P2;Temp;Humidity;BMP_temperature;BMP_pressure;BME280_temperature;BME280_humidity;BME280_pressure;Samples;Min_cycle;Max_cycle;Signal;HPM_P1;HPM_P2
2023/08/31 00:01:54;;;;;;;10.57;9.47;;;;;;;;;;5074474;28;20202;-53
2023/08/31 00:04:20;;;;;;;9.60;8.60;;;;;;;;;;5074408;28;20191;-53
2023/08/31 00:06:46;;;;;;;10.80;8.60;;;;;;;;;;5074244;28;20207;-53
2023/08/31 00:09:13;;;;;;;10.50;9.40;;;;;;;;;;5074298;28;20672;-53
2023/08/31 00:11:39;;;;;;;9.53;8.43;;;;;;;;;;5074494;28;20188;-53
2023/08/31 00:14:05;;;;;;;10.07;8.87;;;;;;;;;;5074373;28;20192;-53
2023/08/31 00:16:33;;;;;;;9.83;8.73;;;;;;;;;;5074405;28;20196;-53
2023/08/31 00:19:00;;;;;;;10.00;8.23;;;;;;;;;;5074001;28;20645;-53
2023/08/31 00:21:26;;;;;;;9.27;7.43;;;;;;;;;;5074177;28;20301;-53
2023/08/31 00:23:54;;;;;;;9.67;7.03;;;;;;;;;;5074151;28;20231;-53
2023/08/31 00:26:20;;;;;;;9.77;6.97;;;;;;;;;;5074029;28;20733;-53
2023/08/31 00:28:46;;;;;;;7.97;6.97;;;;;;;;;;5073781;28;20458;-53
2023/08/31 00:31:12;;;;;;;8.57;6.40;;;;;;;;;;5074075;28;20231;-52
2023/08/31 00:33:38;;;;;;;9.20;6.27;;;;;;;;;;5073932;28;20234;-53
2023/08/31 00:36:06;;;;;;;6.87;6.17;;;;;;;;;;5073743;28;20198;-53
2023/08/31 00:38:32;;;;;;;9.20;7.37;;;;;;;;;;5073844;28;20182;-53
2023/08/31 00:40:58;;;;;;;9.47;6.73;;;;;;;;;;5073751;28;20279;-53
2023/08/31 00:43:24;;;;;;;11.40;6.80;;;;;;;;;;5073714;28;20275;-53
2023/08/31 00:45:57;;;;;;;6.93;5.80;;;;;;;;;;5073686;28;20264;-53
2023/08/31 00:48:24;;;;;;;6.80;6.03;;;;;;;;;;5073724;28;20577;-53
2023/08/31 00:50:50;;;;;;;7.33;6.00;;;;;;;;;;5073545;28;20233;-53
2023/08/31 00:53:18;;;;;;;8.33;6.87;;;;;;;;;;5073493;28;20200;-53
2023/08/31 00:55:45;;;;;;;7.40;6.10;;;;;;;;;;5073287;28;20570;-53
2023/08/31 00:58:11;;;;;;;9.10;6.00;;;;;;;;;;5073622;28;20192;-52
2023/08/31 01:00:44;;;;;;;7.50;6.77;;;;;;;;;;5073478;28;20200;-52
2023/08/31 01:03:12;;;;;;;11.10;6.57;;;;;;;;;;5073533;28;20278;-52
2023/08/31 01:05:47;;;;;;;8.67;6.90;;;;;;;;;;5073629;28;20583;-53
2023/08/31 01:08:18;;;;;;;7.80;6.80;;;;;;;;;;5073267;28;20219;-52
2023/08/31 01:10:49;;;;;;;9.77;7.07;;;;;;;;;;5072538;28;20196;-53
2023/08/31 01:13:16;;;;;;;8.30;6.23;;;;;;;;;;5073151;28;20598;-53
2023/08/31 01:15:46;;;;;;;7.87;6.03;;;;;;;;;;5073077;28;20230;-53
2023/08/31 01:18:15;;;;;;;8.03;6.37;;;;;;;;;;5073014;28;20609;-52
2023/08/31 01:20:42;;;;;;;9.67;6.90;;;;;;;;;;5073031;28;20196;-53
2023/08/31 01:23:11;;;;;;;8.00;6.73;;;;;;;;;;5073091;28;20192;-53
2023/08/31 01:25:40;;;;;;;8.10;6.30;;;;;;;;;;5072922;28;20203;-53
2023/08/31 01:28:07;;;;;;;9.43;6.37;;;;;;;;;;5072928;28;20239;-53
2023/08/31 01:30:34;;;;;;;7.33;6.57;;;;;;;;;;5072859;28;20233;-53
2023/08/31 01:33:00;;;;;;;10.27;6.80;;;;;;;;;;5072634;28;20199;-53
2023/08/31 01:35:27;;;;;;;8.80;6.83;;;;;;;;;;5072808;28;20195;-53
2023/08/31 01:37:55;;;;;;;8.03;5.63;;;;;;;;;;5072816;28;20588;-53
2023/08/31 01:40:24;;;;;;;8.50;6.33;;;;;;;;;;5072538;28;20218;-52
2023/08/31 01:42:51;;;;;;;11.47;7.33;;;;;;;;;;5072153;28;20721;-53
2023/08/31 01:45:20;;;;;;;7.77;6.97;;;;;;;;;;5072359;28;20670;-53
2023/08/31 01:47:46;;;;;;;7.23;6.53;;;;;;;;;;5072285;28;20588;-53
2023/08/31 01:50:12;;;;;;;8.53;6.57;;;;;;;;;;5072385;28;20310;-53
2023/08/31 01:52:38;;;;;;;9.57;6.93;;;;;;;;;;5072409;28;20247;-53
2023/08/31 01:55:05;;;;;;;9.03;6.27;;;;;;;;;;5072143;28;20557;-53
2023/08/31 01:57:32;;;;;;;9.40;5.90;;;;;;;;;;5072269;28;20609;-53
2023/08/31 01:59:59;;;;;;;9.17;6.67;;;;;;;;;;5072378;28;20195;-53
2023/08/31 02:02:25;;;;;;;6.90;5.67;;;;;;;;;;5072325;28;20207;-53
2023/08/31 02:04:51;;;;;;;8.97;5.77;;;;;;;;;;5072068;28;20271;-53
2023/08/31 02:07:17;;;;;;;6.97;5.27;;;;;;;;;;5072054;28;20269;-53
2023/08/31 02:09:43;;;;;;;6.70;5.13;;;;;;;;;;5072197;28;20287;-53
2023/08/31 02:12:10;;;;;;;7.80;5.23;;;;;;;;;;5072391;28;20296;-53
2023/08/31 02:14:36;;;;;;;11.07;6.10;;;;;;;;;;5072034;28;20203;-53
2023/08/31 02:17:03;;;;;;;7.33;5.93;;;;;;;;;;5071860;28;20374;-52
2023/08/31 02:19:30;;;;;;;8.73;5.93;;;;;;;;;;5071819;28;20207;-53
2023/08/31 02:21:56;;;;;;;9.07;6.70;;;;;;;;;;5070975;28;20196;-53
2023/08/31 02:24:22;;;;;;;7.53;6.10;;;;;;;;;;5071821;28;20196;-53
2023/08/31 02:26:49;;;;;;;9.20;6.80;;;;;;;;;;5071708;28;20494;-52
2023/08/31 02:29:15;;;;;;;9.10;6.27;;;;;;;;;;5071649;28;20276;-53
2023/08/31 02:31:41;;;;;;;8.13;6.57;;;;;;;;;;5071788;28;20199;-53
2023/08/31 02:34:09;;;;;;;8.20;6.13;;;;;;;;;;5071978;28;20227;-53
2023/08/31 02:36:35;;;;;;;7.47;6.67;;;;;;;;;;5071860;28;20294;-53
2023/08/31 02:39:01;;;;;;;11.23;7.20;;;;;;;;;;5071466;28;20282;-53
2023/08/31 02:41:27;;;;;;;7.67;6.30;;;;;;;;;;5071578;28;20203;-53
2023/08/31 02:43:53;;;;;;;8.67;7.47;;;;;;;;;;5071569;28;20239;-52
2023/08/31 02:46:19;;;;;;;12.30;7.30;;;;;;;;;;5071624;28;20282;-52
2023/08/31 02:48:46;;;;;;;7.77;6.13;;;;;;;;;;5071235;28;20253;-53
2023/08/31 02:51:13;;;;;;;10.27;7.00;;;;;;;;;;5071518;28;20195;-53
2023/08/31 02:53:39;;;;;;;8.63;6.47;;;;;;;;;;5071497;28;20267;-52
2023/08/31 02:56:05;;;;;;;9.13;6.67;;;;;;;;;;5071363;28;20199;-52
2023/08/31 02:58:32;;;;;;;7.97;6.33;;;;;;;;;;5071393;28;20203;-52
2023/08/31 03:01:06;;;;;;;6.93;6.00;;;;;;;;;;5071301;28;20217;-52
2023/08/31 03:03:32;;;;;;;7.87;5.93;;;;;;;;;;5071391;28;20221;-52
2023/08/31 03:05:58;;;;;;;7.80;6.77;;;;;;;;;;5071194;28;20631;-53
2023/08/31 03:08:25;;;;;;;6.97;6.27;;;;;;;;;;5071334;28;20267;-53
2023/08/31 03:10:53;;;;;;;8.10;5.53;;;;;;;;;;5071164;28;20723;-53
2023/08/31 03:13:19;;;;;;;6.50;4.77;;;;;;;;;;5071280;28;20199;-52
2023/08/31 03:15:45;;;;;;;9.17;5.80;;;;;;;;;;5071138;28;20203;-53
2023/08/31 03:18:11;;;;;;;7.30;5.33;;;;;;;;;;5071322;28;20199;-53
2023/08/31 03:20:37;;;;;;;8.70;5.60;;;;;;;;;;5071219;28;20200;-53
2023/08/31 03:23:03;;;;;;;9.13;5.83;;;;;;;;;;5071029;28;20206;-53
2023/08/31 03:25:30;;;;;;;6.77;5.37;;;;;;;;;;5071299;28;20229;-53
2023/08/31 03:27:56;;;;;;;7.00;4.70;;;;;;;;;;5071006;28;20247;-53
2023/08/31 03:30:22;;;;;;;7.20;5.30;;;;;;;;;;5071099;28;20206;-55
2023/08/31 03:32:48;;;;;;;8.53;4.70;;;;;;;;;;5071343;28;20200;-53
2023/08/31 03:35:14;;;;;;;7.60;4.97;;;;;;;;;;5075012;28;20226;-53
2023/08/31 03:37:40;;;;;;;5.97;4.87;;;;;;;;;;5075075;28;20194;-53
2023/08/31 03:40:07;;;;;;;7.27;5.23;;;;;;;;;;5075146;28;20191;-53
2023/08/31 03:42:35;;;;;;;6.30;5.20;;;;;;;;;;5074606;28;20247;-53
2023/08/31 03:45:03;;;;;;;7.90;5.17;;;;;;;;;;5074740;28;20619;-53
2023/08/31 03:47:29;;;;;;;6.73;4.70;;;;;;;;;;5074755;28;20223;-53
2023/08/31 03:49:55;;;;;;;6.07;5.23;;;;;;;;;;5074691;28;20199;-53
2023/08/31 03:52:22;;;;;;;5.97;4.80;;;;;;;;;;5074940;28;20191;-53
2023/08/31 03:54:49;;;;;;;5.67;5.10;;;;;;;;;;5074722;28;20223;-53
2023/08/31 03:57:15;;;;;;;5.87;5.17;;;;;;;;;;5074587;28;20219;-54
2023/08/31 03:59:42;;;;;;;10.13;5.77;;;;;;;;;;5074712;28;20219;-54
2023/08/31 04:02:08;;;;;;;10.50;6.07;;;;;;;;;;5074605;28;20706;-53
2023/08/31 04:04:34;;;;;;;5.93;5.33;;;;;;;;;;5074441;28;20246;-53
2023/08/31 04:07:00;;;;;;;6.97;5.80;;;;;;;;;;5074280;28;20286;-53
2023/08/31 04:09:26;;;;;;;6.63;5.97;;;;;;;;;;5074431;28;20210;-53
2023/08/31 04:11:52;;;;;;;13.27;6.37;;;;;;;;;;5074357;28;20253;-53
2023/08/31 04:14:18;;;;;;;11.10;6.40;;;;;;;;;;5074496;28;20203;-53
2023/08/31 04:16:49;;;;;;;6.73;6.10;;;;;;;;;;5073909;28;20199;-53
2023/08/31 04:19:15;;;;;;;7.00;6.20;;;;;;;;;;5074139;28;20204;-53
2023/08/31 04:21:41;;;;;;;7.77;5.80;;;;;;;;;;5074284;28;20199;-53
2023/08/31 04:24:07;;;;;;;9.30;6.57;;;;;;;;;;5074146;28;20191;-53
2023/08/31 04:26:33;;;;;;;7.33;6.50;;;;;;;;;;5074046;28;20573;-53
2023/08/31 04:28:59;;;;;;;6.87;6.00;;;;;;;;;;5073817;28;20704;-54
2023/08/31 04:31:25;;;;;;;6.53;5.77;;;;;;;;;;5074203;28;20199;-53
2023/08/31 04:33:56;;;;;;;7.57;6.40;;;;;;;;;;5073740;28;20282;-53
2023/08/31 04:36:22;;;;;;;9.17;7.30;;;;;;;;;;5073825;28;20676;-53
2023/08/31 04:38:51;;;;;;;8.40;6.50;;;;;;;;;;5073179;28;20797;-54
2023/08/31 04:41:17;;;;;;;9.50;7.00;;;;;;;;;;5073853;28;20227;-54
2023/08/31 04:43:43;;;;;;;13.17;7.80;;;;;;;;;;5073870;28;20235;-53
2023/08/31 04:46:10;;;;;;;12.70;8.73;;;;;;;;;;5072770;28;20269;-53
2023/08/31 04:48:36;;;;;;;10.50;8.63;;;;;;;;;;5073576;28;20220;-53
2023/08/31 04:51:06;;;;;;;10.67;8.33;;;;;;;;;;5073569;28;20196;-54
2023/08/31 04:53:32;;;;;;;9.27;8.27;;;;;;;;;;5073543;28;20202;-54
2023/08/31 04:55:58;;;;;;;10.30;8.03;;;;;;;;;;5073361;28;20195;-53
2023/08/31 04:58:24;;;;;;;9.03;7.63;;;;;;;;;;5073652;28;20567;-53
2023/08/31 05:00:51;;;;;;;9.10;7.67;;;;;;;;;;5073305;28;20204;-54
2023/08/31 05:03:17;;;;;;;10.23;7.87;;;;;;;;;;5073187;28;20661;-54
2023/08/31 05:05:44;;;;;;;7.77;7.00;;;;;;;;;;5073162;28;20629;-53
2023/08/31 05:08:11;;;;;;;9.10;7.83;;;;;;;;;;5073695;28;20238;-54
2023/08/31 05:10:37;;;;;;;10.93;8.23;;;;;;;;;;5073503;28;20214;-55
2023/08/31 05:13:04;;;;;;;12.40;8.87;;;;;;;;;;5072892;28;20279;-54
2023/08/31 05:15:30;;;;;;;11.50;8.03;;;;;;;;;;5072840;28;20195;-54
2023/08/31 05:17:56;;;;;;;12.13;8.77;;;;;;;;;;5073058;28;20238;-53
2023/08/31 05:20:23;;;;;;;12.63;10.07;;;;;;;;;;5072926;28;20195;-54
2023/08/31 05:22:49;;;;;;;12.37;9.03;;;;;;;;;;5072799;28;20246;-54
2023/08/31 05:25:17;;;;;;;11.47;9.23;;;;;;;;;;5072913;28;20253;-55
2023/08/31 05:27:43;;;;;;;11.57;10.43;;;;;;;;;;5072667;28;20583;-54
2023/08/31 05:30:09;;;;;;;18.60;11.37;;;;;;;;;;5073081;28;20195;-53
2023/08/31 05:32:35;;;;;;;12.90;10.47;;;;;;;;;;5072594;28;20309;-54
2023/08/31 05:35:02;;;;;;;15.40;10.37;;;;;;;;;;5072411;28;20196;-54
2023/08/31 05:37:32;;;;;;;14.17;11.17;;;;;;;;;;5072563;28;20199;-53
2023/08/31 05:39:58;;;;;;;16.87;11.13;;;;;;;;;;5072432;28;20202;-53
2023/08/31 05:42:26;;;;;;;12.47;11.20;;;;;;;;;;5072472;28;20259;-54
2023/08/31 05:44:52;;;;;;;14.87;12.70;;;;;;;;;;5072398;28;20203;-53
2023/08/31 05:47:20;;;;;;;14.37;11.20;;;;;;;;;;5072122;28;20281;-54
2023/08/31 05:49:46;;;;;;;12.27;10.80;;;;;;;;;;5072341;28;20280;-54
2023/08/31 05:52:12;;;;;;;17.10;12.30;;;;;;;;;;5072452;28;20583;-55
2023/08/31 05:54:38;;;;;;;15.90;11.07;;;;;;;;;;5072426;28;20267;-54
2023/08/31 05:57:05;;;;;;;12.87;10.90;;;;;;;;;;5070345;28;20209;-54
2023/08/31 05:59:32;;;;;;;13.40;12.00;;;;;;;;;;5072379;28;20192;-54
2023/08/31 06:01:58;;;;;;;12.37;10.93;;;;;;;;;;5072158;28;20223;-54
2023/08/31 06:04:25;;;;;;;12.77;11.10;;;;;;;;;;5072214;28;20226;-54
2023/08/31 06:06:53;;;;;;;11.87;9.90;;;;;;;;;;5072025;28;20199;-54
2023/08/31 06:09:20;;;;;;;14.07;11.57;;;;;;;;;;5071934;28;20689;-53
2023/08/31 06:11:46;;;;;;;12.53;11.13;;;;;;;;;;5071822;28;20673;-53
2023/08/31 06:14:12;;;;;;;12.10;10.90;;;;;;;;;;5071929;28;20204;-54
2023/08/31 06:16:39;;;;;;;12.77;11.33;;;;;;;;;;5071938;28;20191;-53
2023/08/31 06:19:05;;;;;;;12.17;10.63;;;;;;;;;;5071726;28;20198;-53
2023/08/31 06:21:31;;;;;;;12.37;11.07;;;;;;;;;;5071671;28;20275;-54
2023/08/31 06:23:57;;;;;;;13.20;10.60;;;;;;;;;;5071669;28;20191;-54
2023/08/31 06:26:23;;;;;;;13.73;11.40;;;;;;;;;;5071824;28;20199;-55
2023/08/31 06:28:50;;;;;;;13.93;11.80;;;;;;;;;;5071885;28;20224;-54
2023/08/31 06:31:16;;;;;;;14.27;11.93;;;;;;;;;;5071560;28;20199;-54
2023/08/31 06:33:44;;;;;;;12.57;10.67;;;;;;;;;;5071494;28;20654;-53
2023/08/31 06:36:10;;;;;;;12.27;11.03;;;;;;;;;;5071645;28;20225;-54
2023/08/31 06:38:36;;;;;;;13.80;12.40;;;;;;;;;;5071549;28;20239;-54
2023/08/31 06:41:02;;;;;;;13.77;11.70;;;;;;;;;;5071389;28;20195;-53
2023/08/31 06:43:28;;;;;;;14.00;12.03;;;;;;;;;;5071288;28;20314;-53
2023/08/31 06:45:54;;;;;;;13.70;11.77;;;;;;;;;;5071558;28;20294;-53
2023/08/31 06:48:20;;;;;;;13.77;11.97;;;;;;;;;;5071321;28;20219;-53
2023/08/31 06:50:48;;;;;;;13.23;12.03;;;;;;;;;;5069599;28;20574;-54
2023/08/31 06:53:14;;;;;;;15.87;13.60;;;;;;;;;;5071286;28;20569;-52
2023/08/31 06:55:40;;;;;;;15.03;13.53;;;;;;;;;;5071610;28;20195;-52
2023/08/31 06:58:06;;;;;;;17.63;13.30;;;;;;;;;;5071292;28;20241;-53
2023/08/31 07:00:32;;;;;;;14.40;13.00;;;;;;;;;;5071305;28;20195;-53
2023/08/31 07:02:58;;;;;;;14.83;12.63;;;;;;;;;;5071069;28;20200;-53
2023/08/31 07:05:25;;;;;;;15.00;13.50;;;;;;;;;;5068070;28;20199;-53
2023/08/31 07:07:54;;;;;;;14.20;12.80;;;;;;;;;;5068938;28;20224;-54
2023/08/31 07:10:20;;;;;;;16.77;15.07;;;;;;;;;;5071306;28;20207;-53
2023/08/31 07:12:46;;;;;;;15.77;14.27;;;;;;;;;;5071104;28;20205;-53
2023/08/31 07:15:12;;;;;;;16.97;15.27;;;;;;;;;;5071150;28;20237;-53
2023/08/31 07:17:38;;;;;;;17.37;15.57;;;;;;;;;;5069533;28;20207;-53
2023/08/31 07:20:07;;;;;;;16.83;15.20;;;;;;;;;;5070698;28;20199;-54
2023/08/31 07:22:34;;;;;;;16.90;15.07;;;;;;;;;;5071108;28;20200;-54
2023/08/31 07:25:03;;;;;;;16.03;14.37;;;;;;;;;;5070921;28;20607;-53
2023/08/31 07:27:29;;;;;;;14.47;13.27;;;;;;;;;;5071053;28;20204;-60
2023/08/31 07:29:55;;;;;;;14.20;12.90;;;;;;;;;;5071102;28;20257;-62
2023/08/31 07:32:22;;;;;;;18.33;12.93;;;;;;;;;;5070909;28;20195;-57
2023/08/31 07:34:48;;;;;;;17.87;12.60;;;;;;;;;;5071000;28;20313;-55
2023/08/31 07:37:14;;;;;;;13.80;12.40;;;;;;;;;;5070940;28;20192;-54
2023/08/31 07:39:40;;;;;;;14.37;13.00;;;;;;;;;;5071106;28;20199;-54
2023/08/31 07:42:07;;;;;;;13.47;12.27;;;;;;;;;;5070682;28;20243;-55
2023/08/31 07:44:33;;;;;;;13.53;12.10;;;;;;;;;;5071022;28;20287;-56
2023/08/31 07:47:00;;;;;;;12.47;11.20;;;;;;;;;;5070700;28;20222;-54
2023/08/31 07:49:26;;;;;;;13.00;11.80;;;;;;;;;;5064425;28;20241;-55
2023/08/31 07:51:52;;;;;;;12.43;11.33;;;;;;;;;;5070636;28;20195;-54
2023/08/31 07:54:23;;;;;;;11.70;10.63;;;;;;;;;;5070874;28;20230;-54
2023/08/31 07:56:49;;;;;;;12.37;11.13;;;;;;;;;;5070528;28;20642;-54
2023/08/31 07:59:18;;;;;;;13.77;12.37;;;;;;;;;;5070396;28;20207;-54
2023/08/31 08:01:44;;;;;;;12.33;11.13;;;;;;;;;;5070820;28;20200;-54
2023/08/31 08:04:11;;;;;;;13.33;12.00;;;;;;;;;;5070551;28;20287;-54
2023/08/31 08:06:37;;;;;;;12.37;11.20;;;;;;;;;;5070456;28;20204;-53
2023/08/31 08:09:04;;;;;;;11.47;10.37;;;;;;;;;;5070422;28;20301;-54
2023/08/31 08:11:30;;;;;;;11.37;10.27;;;;;;;;;;5070567;28;20231;-54
2023/08/31 08:13:56;;;;;;;10.93;9.83;;;;;;;;;;5070210;28;20195;-54
2023/08/31 08:16:24;;;;;;;11.57;10.10;;;;;;;;;;5070625;28;20199;-55
2023/08/31 08:18:50;;;;;;;11.07;9.97;;;;;;;;;;5070217;28;20192;-54
2023/08/31 08:21:16;;;;;;;9.93;9.00;;;;;;;;;;5073092;28;20625;-55
2023/08/31 08:23:42;;;;;;;9.13;7.93;;;;;;;;;;5072145;28;20692;-55
2023/08/31 08:26:08;;;;;;;9.73;7.60;;;;;;;;;;5072427;28;20223;-54
2023/08/31 08:28:34;;;;;;;8.17;7.40;;;;;;;;;;5073904;28;20306;-55
2023/08/31 08:31:03;;;;;;;8.13;7.27;;;;;;;;;;5073864;28;20191;-55
2023/08/31 08:33:30;;;;;;;8.53;7.83;;;;;;;;;;5073916;28;20199;-55
2023/08/31 08:35:56;;;;;;;8.23;7.43;;;;;;;;;;5073933;28;20199;-55
2023/08/31 08:38:22;;;;;;;8.43;7.03;;;;;;;;;;5073968;28;20199;-58
2023/08/31 08:40:48;;;;;;;7.70;6.67;;;;;;;;;;5073789;28;20283;-55
2023/08/31 08:43:15;;;;;;;7.40;5.80;;;;;;;;;;5073366;28;20300;-56
2023/08/31 08:45:42;;;;;;;8.43;6.53;;;;;;;;;;5073791;28;20669;-55
2023/08/31 08:48:09;;;;;;;7.60;5.77;;;;;;;;;;5073635;28;20246;-55
2023/08/31 08:50:37;;;;;;;6.07;5.50;;;;;;;;;;5073635;28;20641;-58
2023/08/31 08:53:03;;;;;;;5.73;5.23;;;;;;;;;;5073427;28;20219;-57
2023/08/31 08:55:29;;;;;;;5.87;5.27;;;;;;;;;;5073512;28;20199;-57
2023/08/31 08:57:56;;;;;;;5.37;4.90;;;;;;;;;;5073645;28;20203;-58
2023/08/31 09:00:22;;;;;;;7.63;5.13;;;;;;;;;;5073603;28;20575;-58
2023/08/31 09:02:48;;;;;;;6.30;4.83;;;;;;;;;;5073301;28;20200;-58
2023/08/31 09:05:15;;;;;;;6.53;4.57;;;;;;;;;;5073383;28;20653;-58
2023/08/31 09:07:56;;;;;;;5.50;4.27;;;;;;;;;;5073367;28;20200;-58
2023/08/31 09:10:23;;;;;;;6.00;4.43;;;;;;;;;;5073416;28;20199;-58
2023/08/31 09:12:49;;;;;;;5.60;3.50;;;;;;;;;;5073181;28;20196;-58
2023/08/31 09:15:15;;;;;;;4.70;3.90;;;;;;;;;;5073248;28;20201;-58
2023/08/31 09:17:44;;;;;;;4.57;4.13;;;;;;;;;;5073148;28;20210;-58
2023/08/31 09:20:10;;;;;;;5.33;4.00;;;;;;;;;;5073065;28;20274;-58
2023/08/31 09:22:36;;;;;;;4.93;4.37;;;;;;;;;;5073057;28;20192;-58
2023/08/31 09:25:05;;;;;;;4.50;3.53;;;;;;;;;;5072845;28;20566;-58
2023/08/31 09:27:38;;;;;;;7.43;3.80;;;;;;;;;;5072980;28;20199;-57
2023/08/31 09:30:04;;;;;;;5.60;3.40;;;;;;;;;;5072812;28;20203;-57
2023/08/31 09:32:30;;;;;;;5.23;3.10;;;;;;;;;;5072273;28;20192;-57
2023/08/31 09:34:56;;;;;;;4.07;2.73;;;;;;;;;;5072753;28;20231;-57
2023/08/31 09:37:22;;;;;;;5.53;3.20;;;;;;;;;;5072935;28;20223;-58
2023/08/31 09:39:49;;;;;;;3.30;2.90;;;;;;;;;;5072789;28;20653;-57
2023/08/31 09:42:15;;;;;;;4.00;2.90;;;;;;;;;;5072410;28;20268;-56
2023/08/31 09:44:43;;;;;;;3.63;2.27;;;;;;;;;;5072709;28;20201;-57
2023/08/31 09:47:09;;;;;;;4.43;2.43;;;;;;;;;;5072520;28;20240;-58
2023/08/31 09:49:37;;;;;;;3.60;2.30;;;;;;;;;;5072419;28;20599;-57
2023/08/31 09:52:04;;;;;;;3.17;2.53;;;;;;;;;;5072396;28;20481;-57
2023/08/31 09:54:31;;;;;;;2.80;2.23;;;;;;;;;;5072339;28;20740;-57
2023/08/31 09:57:00;;;;;;;4.17;2.67;;;;;;;;;;5072422;28;20196;-59
2023/08/31 09:59:27;;;;;;;5.37;2.70;;;;;;;;;;5072568;28;20214;-59
2023/08/31 10:02:00;;;;;;;4.00;2.67;;;;;;;;;;5072262;28;20216;-57
2023/08/31 10:04:27;;;;;;;3.13;2.60;;;;;;;;;;5072160;28;20680;-57
2023/08/31 10:06:53;;;;;;;5.37;3.07;;;;;;;;;;5072214;28;20194;-57
2023/08/31 10:09:20;;;;;;;3.37;2.43;;;;;;;;;;5071918;28;20228;-58
2023/08/31 10:11:47;;;;;;;3.37;2.77;;;;;;;;;;5071903;28;20229;-57
2023/08/31 10:14:14;;;;;;;6.27;3.33;;;;;;;;;;5071958;28;20222;-57
2023/08/31 10:16:40;;;;;;;5.47;2.80;;;;;;;;;;5072072;28;20191;-57
2023/08/31 10:19:07;;;;;;;3.40;2.70;;;;;;;;;;5071866;28;20220;-57
2023/08/31 10:21:34;;;;;;;2.90;2.67;;;;;;;;;;5072075;28;20292;-57
2023/08/31 10:24:00;;;;;;;3.10;2.40;;;;;;;;;;5071725;28;20688;-57
2023/08/31 10:26:27;;;;;;;4.93;2.80;;;;;;;;;;5071966;28;20197;-57
2023/08/31 10:28:53;;;;;;;4.93;2.47;;;;;;;;;;5071836;28;20218;-57
2023/08/31 10:31:22;;;;;;;3.23;2.27;;;;;;;;;;5071698;28;20226;-58
2023/08/31 10:33:55;;;;;;;2.80;2.03;;;;;;;;;;5071663;28;20206;-58
2023/08/31 10:36:23;;;;;;;4.43;2.17;;;;;;;;;;5071801;28;20198;-58
2023/08/31 10:39:00;;;;;;;3.93;2.10;;;;;;;;;;5071554;28;20277;-57
2023/08/31 10:41:32;;;;;;;4.80;2.30;;;;;;;;;;5071618;28;20661;-57
2023/08/31 10:43:58;;;;;;;5.20;2.10;;;;;;;;;;5070562;28;20246;-57
2023/08/31 10:46:28;;;;;;;3.83;2.50;;;;;;;;;;5071682;28;20286;-57
2023/08/31 10:48:55;;;;;;;4.47;2.43;;;;;;;;;;5071399;28;20272;-57
2023/08/31 10:51:26;;;;;;;4.30;2.37;;;;;;;;;;5071707;28;20278;-57
2023/08/31 10:53:52;;;;;;;6.37;2.90;;;;;;;;;;5071428;28;20218;-57
2023/08/31 10:56:18;;;;;;;3.40;2.70;;;;;;;;;;5071386;28;20198;-58
2023/08/31 10:58:55;;;;;;;2.57;2.30;;;;;;;;;;5071365;28;20195;-57
2023/08/31 11:01:36;;;;;;;2.97;2.10;;;;;;;;;;5071450;28;20199;-57
2023/08/31 11:04:10;;;;;;;2.83;1.87;;;;;;;;;;5070926;28;20374;-58
2023/08/31 11:06:38;;;;;;;2.57;1.90;;;;;;;;;;5071174;28;20214;-57
2023/08/31 11:09:05;;;;;;;3.90;2.03;;;;;;;;;;5071226;28;20216;-58
2023/08/31 11:11:38;;;;;;;2.40;1.93;;;;;;;;;;5071253;28;20246;-58
2023/08/31 11:14:04;;;;;;;3.70;1.90;;;;;;;;;;5071202;28;20576;-57
2023/08/31 11:16:31;;;;;;;2.40;1.80;;;;;;;;;;5071038;28;20199;-57
2023/08/31 11:18:57;;;;;;;2.20;1.30;;;;;;;;;;5071284;28;20195;-57
2023/08/31 11:21:23;;;;;;;1.77;1.00;;;;;;;;;;5071545;28;20196;-57
2023/08/31 11:23:52;;;;;;;4.37;1.60;;;;;;;;;;5071092;28;20252;-57
2023/08/31 11:26:19;;;;;;;1.30;1.10;;;;;;;;;;5071058;28;20291;-57
2023/08/31 11:28:46;;;;;;;2.87;1.40;;;;;;;;;;5071040;28;20305;-57
2023/08/31 11:31:12;;;;;;;2.37;1.80;;;;;;;;;;5071035;28;20220;-57
2023/08/31 11:33:38;;;;;;;2.30;1.63;;;;;;;;;;5071167;28;20198;-57
2023/08/31 11:36:04;;;;;;;3.77;2.00;;;;;;;;;;5070929;28;20197;-57
2023/08/31 11:38:30;;;;;;;2.47;1.77;;;;;;;;;;5070916;28;20223;-57
2023/08/31 11:40:59;;;;;;;2.67;1.90;;;;;;;;;;5071067;28;20670;-57
2023/08/31 11:43:25;;;;;;;3.73;2.00;;;;;;;;;;5070979;28;20768;-57
2023/08/31 11:45:52;;;;;;;2.73;2.10;;;;;;;;;;5071022;28;20189;-57
2023/08/31 11:48:18;;;;;;;3.00;1.50;;;;;;;;;;5070804;28;20225;-57
2023/08/31 11:50:44;;;;;;;2.97;2.20;;;;;;;;;;5070784;28;20203;-57
2023/08/31 11:53:10;;;;;;;3.23;1.80;;;;;;;;;;5070942;28;20222;-57
2023/08/31 11:55:36;;;;;;;3.27;1.80;;;;;;;;;;5074103;28;20662;-57
2023/08/31 11:58:08;;;;;;;2.00;1.53;;;;;;;;;;5074513;28;20293;-57
2023/08/31 12:00:34;;;;;;;3.17;1.70;;;;;;;;;;5074623;28;20226;-57
2023/08/31 12:03:00;;;;;;;2.33;1.60;;;;;;;;;;5074544;28;20755;-57
2023/08/31 12:05:27;;;;;;;3.10;1.60;;;;;;;;;;5074770;28;20199;-58
2023/08/31 12:07:54;;;;;;;3.53;1.50;;;;;;;;;;5074503;28;20196;-58
2023/08/31 12:10:20;;;;;;;3.50;1.43;;;;;;;;;;5074465;28;20207;-59
2023/08/31 12:12:46;;;;;;;2.37;1.30;;;;;;;;;;5071698;28;20286;-58
2023/08/31 12:15:14;;;;;;;2.53;1.30;;;;;;;;;;5073970;28;20650;-58
2023/08/31 12:17:40;;;;;;;2.33;1.13;;;;;;;;;;5074075;28;20301;-58
2023/08/31 12:20:07;;;;;;;4.07;1.57;;;;;;;;;;5073917;28;20204;-58
2023/08/31 12:22:35;;;;;;;2.40;1.40;;;;;;;;;;5074178;28;20196;-58
2023/08/31 12:25:01;;;;;;;3.47;1.70;;;;;;;;;;5073819;28;20493;-58
2023/08/31 12:27:27;;;;;;;1.27;1.13;;;;;;;;;;5074002;28;20254;-58
2023/08/31 12:29:54;;;;;;;1.53;1.23;;;;;;;;;;5073895;28;20588;-58
2023/08/31 12:32:21;;;;;;;2.17;1.40;;;;;;;;;;5073697;28;20246;-58
2023/08/31 12:34:47;;;;;;;1.97;1.40;;;;;;;;;;5073741;28;20198;-58
2023/08/31 12:37:13;;;;;;;2.70;1.50;;;;;;;;;;5073674;28;20200;-58
2023/08/31 12:39:42;;;;;;;2.20;1.50;;;;;;;;;;5073920;28;20198;-58
2023/08/31 12:42:08;;;;;;;3.67;2.07;;;;;;;;;;5073460;28;20251;-58
2023/08/31 12:44:34;;;;;;;2.20;1.80;;;;;;;;;;5073879;28;20195;-58
2023/08/31 12:47:00;;;;;;;3.07;1.80;;;;;;;;;;5073427;28;20201;-58
2023/08/31 12:49:27;;;;;;;4.30;1.43;;;;;;;;;;5073509;28;20581;-58
2023/08/31 12:51:53;;;;;;;2.23;1.20;;;;;;;;;;5073483;28;20204;-58
2023/08/31 12:54:19;;;;;;;2.87;1.60;;;;;;;;;;5073329;28;20213;-57
2023/08/31 12:56:45;;;;;;;2.27;1.20;;;;;;;;;;5073416;28;20233;-58
2023/08/31 12:59:11;;;;;;;2.67;1.37;;;;;;;;;;5073247;28;20195;-58
2023/08/31 13:01:37;;;;;;;1.57;1.20;;;;;;;;;;5073400;28;20257;-58
2023/08/31 13:04:05;;;;;;;2.70;1.47;;;;;;;;;;5073151;28;20195;-58
2023/08/31 13:06:32;;;;;;;3.17;1.70;;;;;;;;;;5072351;28;20282;-57
2023/08/31 13:08:58;;;;;;;4.43;1.80;;;;;;;;;;5072915;28;20701;-55
2023/08/31 13:11:24;;;;;;;2.53;1.70;;;;;;;;;;5073297;28;20199;-54
2023/08/31 13:13:53;;;;;;;4.07;1.90;;;;;;;;;;5073001;28;20276;-55
2023/08/31 13:16:19;;;;;;;2.77;1.60;;;;;;;;;;5072842;28;20203;-56
2023/08/31 13:18:45;;;;;;;1.30;1.20;;;;;;;;;;5072885;28;20196;-56
2023/08/31 13:21:11;;;;;;;2.03;1.20;;;;;;;;;;5072775;28;20210;-56
2023/08/31 13:23:39;;;;;;;2.30;1.20;;;;;;;;;;5072923;28;20718;-57
2023/08/31 13:26:05;;;;;;;2.87;1.40;;;;;;;;;;5072723;28;20230;-57
2023/08/31 13:28:31;;;;;;;1.73;0.77;;;;;;;;;;5073050;28;20916;-57
2023/08/31 13:31:00;;;;;;;2.20;1.20;;;;;;;;;;5072494;28;20204;-57
2023/08/31 13:33:28;;;;;;;1.90;0.90;;;;;;;;;;5072778;28;20325;-57
2023/08/31 13:35:54;;;;;;;2.07;1.10;;;;;;;;;;5072606;28;20215;-57
2023/08/31 13:38:20;;;;;;;2.67;0.93;;;;;;;;;;5072581;28;20195;-57
2023/08/31 13:40:48;;;;;;;1.10;1.00;;;;;;;;;;5072486;28;20211;-57
2023/08/31 13:43:15;;;;;;;3.47;1.07;;;;;;;;;;5072015;28;20243;-57
2023/08/31 13:45:41;;;;;;;1.47;1.10;;;;;;;;;;5072448;28;20250;-57
2023/08/31 13:48:07;;;;;;;2.57;1.30;;;;;;;;;;5072108;28;20218;-57
2023/08/31 13:50:33;;;;;;;1.10;1.00;;;;;;;;;;5072382;28;20189;-57
2023/08/31 13:52:59;;;;;;;1.20;1.00;;;;;;;;;;5072113;28;20191;-57
2023/08/31 13:55:26;;;;;;;3.17;1.23;;;;;;;;;;5072253;28;20202;-57
2023/08/31 13:57:53;;;;;;;2.10;1.33;;;;;;;;;;5072066;28;20614;-57
2023/08/31 14:00:19;;;;;;;1.63;1.10;;;;;;;;;;5071981;28;20204;-57
2023/08/31 14:02:46;;;;;;;2.33;1.10;;;;;;;;;;5071896;28;20605;-57
2023/08/31 14:05:12;;;;;;;2.43;1.10;;;;;;;;;;5071989;28;20207;-56
2023/08/31 14:07:38;;;;;;;3.57;1.50;;;;;;;;;;5072167;28;20249;-57
2023/08/31 14:10:07;;;;;;;1.77;1.20;;;;;;;;;;5071790;28;20309;-57
2023/08/31 14:12:34;;;;;;;1.40;1.20;;;;;;;;;;5071915;28;20207;-57
2023/08/31 14:15:03;;;;;;;4.17;1.43;;;;;;;;;;5071786;28;20203;-57
2023/08/31 14:17:29;;;;;;;2.23;1.33;;;;;;;;;;5071551;28;20203;-57
2023/08/31 14:19:56;;;;;;;2.67;1.50;;;;;;;;;;5071900;28;20191;-57
2023/08/31 14:22:23;;;;;;;2.33;1.50;;;;;;;;;;5071851;28;20246;-57
2023/08/31 14:24:49;;;;;;;2.23;1.17;;;;;;;;;;5071714;28;20616;-57
2023/08/31 14:27:15;;;;;;;2.47;1.43;;;;;;;;;;5071466;28;20203;-57
2023/08/31 14:29:41;;;;;;;2.03;1.40;;;;;;;;;;5071484;28;20548;-57
2023/08/31 14:32:09;;;;;;;1.33;1.23;;;;;;;;;;5071506;28;20195;-57
2023/08/31 14:34:35;;;;;;;2.30;1.40;;;;;;;;;;5071473;28;20753;-57